Time;durP1;ratioP1;P1;durP2;ratioP2;P2;SDS_P1;SDS_P2;PMS_P1;PMS_P2;Temp;Humidity;BMP_temperature;BMP_pressure;BME280_temperature;BME280_humidity;BME280_pressure;Samples;Min_cycle;Max_cycle;Signal;HPM_P1;HPM_P2
2022/09/01 00:01:52;;;;;;;8.65;2.00;;;;;;;23.50;54.64;101659.65;2286927;75;51214;-72
2022/09/01 00:04:57;;;;;;;6.95;1.90;;;;;;;23.51;54.60;101664.88;2314838;76;51532;-71
2022/09/01 00:07:59;;;;;;;9.25;2.27;;;;;;;23.50;54.59;101661.83;2344540;74;50230;-72
2022/09/01 00:11:01;;;;;;;5.62;1.90;;;;;;;23.48;54.56;101662.04;2272077;75;50039;-72
2022/09/01 00:14:05;;;;;;;5.47;2.05;;;;;;;23.51;54.48;101654.07;2288623;77;51515;-72
2022/09/01 00:17:09;;;;;;;7.10;2.20;;;;;;;23.50;54.46;101659.65;2258130;77;50493;-72
2022/09/01 00:20:11;;;;;;;7.08;2.12;;;;;;;23.51;54.42;101667.58;2291042;77;51477;-71
2022/09/01 00:23:14;;;;;;;6.35;2.25;;;;;;;23.51;54.41;101664.88;2295927;76;50615;-72
2022/09/01 00:26:16;;;;;;;4.72;2.30;;;;;;;23.53;54.39;101659.27;2266915;77;52416;-72
2022/09/01 00:29:18;;;;;;;6.55;1.92;;;;;;;23.52;54.33;101659.78;2300677;76;50465;-72
2022/09/01 00:32:20;;;;;;;3.33;1.90;;;;;;;23.51;54.52;101655.94;2299925;77;51412;-72
2022/09/01 00:35:23;;;;;;;6.10;2.30;;;;;;;23.51;54.33;101656.77;2239306;77;51336;-72
2022/09/01 00:38:25;;;;;;;4.90;2.33;;;;;;;23.53;54.24;101654.72;2265760;76;50628;-72
2022/09/01 00:41:29;;;;;;;6.12;1.98;;;;;;;23.53;54.22;101653.37;2266481;77;51554;-69
2022/09/01 00:44:32;;;;;;;6.47;2.10;;;;;;;23.54;54.13;101656.90;2269640;76;51393;-72
2022/09/01 00:47:34;;;;;;;4.80;1.70;;;;;;;23.54;54.17;101660.95;2321461;76;50810;-72
2022/09/01 00:50:37;;;;;;;3.90;2.10;;;;;;;23.54;54.16;101656.38;2286715;76;50536;-72
2022/09/01 00:53:40;;;;;;;5.30;1.92;;;;;;;23.53;54.11;101646.62;2330117;76;50378;-72
2022/09/01 00:56:43;;;;;;;7.35;2.20;;;;;;;23.55;54.09;101654.51;2336721;75;51428;-74
2022/09/01 05:13:16;;;;;;;5.33;1.80;;;;;;;22.45;51.21;101627.03;2404319;72;26681;-76
2022/09/01 05:16:20;;;;;;;7.35;2.08;;;;;;;22.43;51.14;101625.88;2371193;75;50349;-76
2022/09/01 05:19:23;;;;;;;8.45;1.90;;;;;;;22.48;51.53;101632.05;2307476;74;51361;-75
2022/09/01 05:22:25;;;;;;;6.12;1.98;;;;;;;22.54;51.65;101634.02;2371678;75;50542;-75
2022/09/01 05:25:28;;;;;;;9.98;2.17;;;;;;;22.60;51.61;101626.52;2283839;75;50944;-75
2022/09/01 05:28:30;;;;;;;9.40;2.10;;;;;;;22.67;51.65;101632.86;2336029;75;50560;-76
2022/09/01 05:31:36;;;;;;;6.50;2.30;;;;;;;22.77;51.51;101629.88;2371252;75;50557;-75
2022/09/01 05:34:38;;;;;;;6.25;1.95;;;;;;;22.86;51.61;101625.20;2371817;75;21645;-75
2022/09/01 05:37:41;;;;;;;6.58;2.20;;;;;;;22.94;51.51;101631.36;2336218;75;50204;-76
2022/09/01 05:40:43;;;;;;;6.00;2.15;;;;;;;23.03;51.32;101631.59;2335988;75;51436;-75
2022/09/01 05:43:48;;;;;;;11.88;2.33;;;;;;;23.11;51.13;101629.81;2309924;75;50291;-75
2022/09/01 05:46:51;;;;;;;11.57;1.83;;;;;;;23.24;51.15;101632.15;2336689;75;51510;-73
2022/09/01 05:49:54;;;;;;;11.85;2.05;;;;;;;23.32;50.84;101634.42;2336005;75;49680;-76
2022/09/01 05:52:56;;;;;;;6.80;1.65;;;;;;;23.38;50.73;101637.72;2309900;75;52056;-76
2022/09/01 05:55:58;;;;;;;7.15;2.35;;;;;;;23.45;50.67;101633.20;2309827;75;50299;-75
2022/09/01 05:59:01;;;;;;;10.70;2.00;;;;;;;23.49;50.61;101642.61;2284893;75;49546;-76
2022/09/01 06:02:07;;;;;;;15.60;2.25;;;;;;;23.56;50.46;101642.17;2280904;76;49958;-73
2022/09/01 06:05:07;;;;;;;4.20;1.85;;;;;;;23.64;50.15;101640.69;2169587;80;22576;-75
2022/09/01 06:08:12;;;;;;;10.45;2.27;;;;;;;23.66;49.67;101637.28;2251073;77;50646;-74
2022/09/01 06:11:16;;;;;;;10.68;2.15;;;;;;;23.69;49.59;101630.66;2369506;74;23184;-75
2022/09/01 06:14:18;;;;;;;11.78;2.00;;;;;;;23.74;49.43;101636.84;2371555;74;22308;-74
2022/09/01 06:17:23;;;;;;;9.68;1.82;;;;;;;23.81;49.25;101639.10;2371431;74;50718;-75
2022/09/01 06:20:26;;;;;;;8.83;2.00;;;;;;;23.84;49.06;101641.41;2371446;75;51460;-74
2022/09/01 06:23:28;;;;;;;8.65;1.87;;;;;;;23.87;49.01;101640.52;2335807;74;49655;-73
2022/09/01 06:26:31;;;;;;;6.53;2.05;;;;;;;23.92;48.85;101642.66;2335352;75;50650;-73
2022/09/01 06:29:34;;;;;;;8.83;1.50;;;;;;;23.98;48.66;101649.14;2333979;75;51451;-72
2022/09/01 06:32:37;;;;;;;8.65;1.80;;;;;;;24.01;48.14;101645.52;2328268;75;51340;-71
2022/09/01 06:35:40;;;;;;;5.83;1.70;;;;;;;24.04;47.67;101649.70;2321256;75;50719;-72
2022/09/01 06:38:43;;;;;;;10.70;1.90;;;;;;;24.07;47.34;101647.46;2353803;75;50038;-72
2022/09/01 06:41:48;;;;;;;8.03;1.65;;;;;;;24.09;46.94;101649.43;2310139;75;50695;-72
2022/09/01 06:44:51;;;;;;;5.72;1.40;;;;;;;24.13;46.62;101651.24;2368244;75;50634;-72
2022/09/01 06:47:54;;;;;;;4.47;1.57;;;;;;;24.16;46.36;101644.61;2310061;75;49638;-70
2022/09/01 06:51:02;;;;;;;5.92;2.08;;;;;;;24.17;46.12;101651.16;2363670;75;50329;-72
2022/09/01 06:54:05;;;;;;;7.03;1.42;;;;;;;24.19;45.99;101652.33;2359184;75;50658;-72
2022/09/01 06:57:08;;;;;;;6.53;1.82;;;;;;;24.21;45.87;101660.56;2302228;74;51474;-73
2022/09/01 07:00:19;;;;;;;7.22;1.70;;;;;;;24.22;45.73;101658.69;2338541;75;51807;-73
2022/09/01 07:03:23;;;;;;;9.43;1.95;;;;;;;24.24;45.60;101660.69;2371197;75;50588;-72
2022/09/01 07:06:28;;;;;;;12.25;1.50;;;;;;;24.25;45.44;101660.99;2336724;75;22289;-73
2022/09/01 07:09:30;;;;;;;5.47;1.72;;;;;;;24.25;45.37;101657.80;2375354;74;51434;-73
2022/09/01 07:12:34;;;;;;;4.25;1.40;;;;;;;24.25;45.19;101655.09;2298174;74;49571;-72
2022/09/01 07:15:40;;;;;;;4.35;1.57;;;;;;;24.25;45.10;101655.09;2360847;74;51321;-73
2022/09/01 07:18:42;;;;;;;5.12;1.40;;;;;;;24.26;45.01;101654.57;2397395;74;50527;-71
2022/09/01 07:21:45;;;;;;;8.08;1.50;;;;;;;24.26;44.89;101658.62;2359380;74;51458;-72
2022/09/01 07:24:47;;;;;;;3.10;1.30;;;;;;;24.26;44.75;101663.52;2394588;74;50353;-75
2022/09/01 07:27:49;;;;;;;4.30;1.27;;;;;;;24.26;44.68;101659.45;2325724;74;50911;-76
2022/09/01 07:30:55;;;;;;;5.97;1.40;;;;;;;24.25;44.54;101657.80;2314543;74;51417;-73
2022/09/01 07:33:57;;;;;;;;;;;;;;;24.25;44.57;101656.94;2389577;74;50107;-72
2022/09/01 07:37:00;;;;;;;3.67;1.20;;;;;;;24.25;44.39;101662.34;2325053;75;50172;-73
2022/09/01 07:40:02;;;;;;;2.87;1.22;;;;;;;24.23;44.36;101663.08;2357614;74;49654;-72
2022/09/01 07:43:16;;;;;;;9.08;1.65;;;;;;;24.23;44.29;101664.44;2277636;76;50229;-72
2022/09/01 07:46:19;;;;;;;3.40;1.40;;;;;;;24.21;44.29;101663.27;2300762;76;51282;-72
2022/09/01 07:49:22;;;;;;;4.22;1.40;;;;;;;24.19;44.38;101653.67;2338891;76;50186;-72
2022/09/01 07:52:24;;;;;;;2.02;1.00;;;;;;;24.21;44.38;101658.38;2277109;76;51476;-73
2022/09/01 07:55:27;;;;;;;3.75;1.00;;;;;;;24.21;44.37;101661.08;2276882;76;50300;-72
2022/09/01 07:58:30;;;;;;;3.67;1.20;;;;;;;24.20;44.39;101656.20;2302066;76;52630;-72
2022/09/01 08:01:32;;;;;;;2.87;1.07;;;;;;;24.20;44.42;101666.16;2301789;76;50054;-73
2022/09/01 08:04:35;;;;;;;4.05;1.12;;;;;;;24.20;44.41;101668.37;2302228;76;50204;-73
2022/09/01 08:07:37;;;;;;;6.72;1.40;;;;;;;24.18;44.33;101660.96;2317208;75;51326;-73
2022/09/01 08:10:41;;;;;;;3.35;1.30;;;;;;;24.18;44.28;101678.54;2289812;74;52213;-72
2022/09/01 08:13:43;;;;;;;3.92;1.30;;;;;;;24.17;44.25;101678.72;2370792;74;51426;-73
2022/09/01 08:16:46;;;;;;;3.40;1.02;;;;;;;24.17;44.15;101678.72;2335224;75;51475;-73
2022/09/01 08:19:48;;;;;;;5.22;1.40;;;;;;;24.13;44.10;101671.53;2335118;75;51417;-74
2022/09/01 08:22:50;;;;;;;2.92;1.05;;;;;;;24.13;43.96;101674.23;2370487;75;50229;-74
2022/09/01 08:25:53;;;;;;;4.00;1.30;;;;;;;24.08;43.91;101671.27;2309161;75;49075;-73
2022/09/01 08:28:55;;;;;;;7.90;1.00;;;;;;;24.06;43.88;101664.70;2370516;74;52036;-74
2022/09/01 08:31:58;;;;;;;6.90;1.05;;;;;;;24.04;43.74;101677.56;2370461;75;51444;-73
2022/09/01 08:35:00;;;;;;;4.62;1.32;;;;;;;24.03;43.79;101678.61;2241595;77;50042;-75
2022/09/01 08:38:03;;;;;;;10.43;1.62;;;;;;;24.02;43.74;101668.84;2335331;75;51533;-76
2022/09/01 08:41:07;;;;;;;15.10;1.50;;;;;;;24.00;43.70;101668.19;2320547;75;50280;-75
2022/09/01 08:44:29;;;;;;;5.28;1.42;;;;;;;23.99;43.67;101662.45;2354803;75;50327;-74
2022/09/01 08:47:31;;;;;;;5.45;1.22;;;;;;;23.98;43.70;101668.89;2354613;75;50219;-75
2022/09/01 08:50:34;;;;;;;9.83;1.60;;;;;;;23.96;43.74;101665.55;2329870;75;49989;-75
2022/09/01 08:53:42;;;;;;;4.33;1.40;;;;;;;23.95;43.69;101671.16;2329792;75;50557;-75
2022/09/01 08:56:46;;;;;;;9.43;1.90;;;;;;;23.91;43.58;101672.05;2354936;75;50304;-73
2022/09/01 08:59:48;;;;;;;7.97;1.45;;;;;;;23.90;43.43;101671.22;2355001;75;51431;-74
2022/09/01 09:03:08;;;;;;;4.00;1.45;;;;;;;23.88;43.43;101665.16;2354959;75;50608;-74
2022/09/01 09:06:33;;;;;;;7.10;1.35;;;;;;;23.87;43.41;101662.15;2322823;75;51506;-74
2022/09/01 09:09:41;;;;;;;7.75;1.22;;;;;;;23.85;43.28;101672.83;2359927;75;50259;-74
2022/09/01 09:13:01;;;;;;;4.30;1.10;;;;;;;23.82;43.24;101670.00;2354230;75;50450;-73
2022/09/01 09:16:12;;;;;;;5.37;1.22;;;;;;;23.81;43.16;101662.08;2295759;76;49887;-75
2022/09/01 09:19:27;;;;;;;3.10;1.02;;;;;;;23.80;43.15;101664.47;2320630;76;50430;-74
2022/09/01 09:22:30;;;;;;;4.12;1.00;;;;;;;23.77;43.08;101662.98;2330469;76;50174;-74
2022/09/01 09:25:32;;;;;;;4.95;1.10;;;;;;;23.74;42.97;101663.87;2295914;76;52554;-74
2022/09/01 09:28:35;;;;;;;5.28;1.30;;;;;;;23.73;43.02;101668.96;2258863;76;51382;-74
2022/09/01 09:31:42;;;;;;;4.50;1.10;;;;;;;23.70;43.07;101664.23;2298118;76;50316;-74
2022/09/01 09:34:42;;;;;;;3.62;1.05;;;;;;;23.68;43.18;101662.23;2294635;76;22279;-75
2022/09/01 09:37:44;;;;;;;2.02;1.02;;;;;;;23.68;43.03;101652.77;2327791;76;50222;-76
2022/09/01 09:41:04;;;;;;;2.45;1.00;;;;;;;23.66;43.13;101652.16;2268771;76;50649;-75
2022/09/01 09:44:19;;;;;;;2.98;0.90;;;;;;;23.67;43.03;101648.41;2295557;76;50376;-76
2022/09/01 09:47:39;;;;;;;2.15;0.88;;;;;;;23.66;42.95;101656.20;2287382;77;50352;-76
2022/09/01 09:50:42;;;;;;;3.90;1.20;;;;;;;23.63;43.00;101649.80;2241573;77;51026;-72
2022/09/01 09:53:45;;;;;;;2.00;0.88;;;;;;;23.64;43.26;101652.84;2287505;77;51437;-74
2022/09/01 09:56:47;;;;;;;1.77;0.90;;;;;;;23.64;43.15;101652.84;2241372;77;49570;-73
2022/09/01 09:59:54;;;;;;;3.67;1.15;;;;;;;23.66;43.21;101645.88;2289093;76;51477;-74
2022/09/01 10:03:05;;;;;;;1.52;0.93;;;;;;;23.66;43.16;101650.80;2268563;77;50471;-74
2022/09/01 10:06:12;;;;;;;2.60;1.10;;;;;;;23.66;43.23;101645.39;2266220;77;49984;-74
2022/09/01 10:09:24;;;;;;;1.07;0.90;;;;;;;23.65;43.23;101651.81;2297569;77;50081;-73
2022/09/01 10:12:27;;;;;;;2.25;1.00;;;;;;;23.67;43.43;101655.16;2295647;77;51547;-73
2022/09/01 10:15:32;;;;;;;1.72;1.02;;;;;;;23.66;43.30;101653.50;2266405;76;52297;-76
2022/09/01 10:18:36;;;;;;;;;;;;;;;23.62;43.39;101644.09;2262243;78;50286;-73
2022/09/01 10:21:39;;;;;;;2.25;1.00;;;;;;;23.64;43.46;101646.62;2286427;77;50301;-74
2022/09/01 10:24:41;;;;;;;1.77;0.90;;;;;;;23.62;43.44;101644.61;2259434;77;50308;-74
2022/09/01 10:27:45;;;;;;;1.42;1.00;;;;;;;23.59;43.55;101645.83;2287529;77;50577;-74
2022/09/01 10:30:49;;;;;;;2.60;1.32;;;;;;;23.60;43.44;101642.61;2297266;76;50749;-74
2022/09/01 10:33:51;;;;;;;2.42;1.05;;;;;;;23.58;43.53;101646.87;2283539;78;51482;-75
2022/09/01 10:36:53;;;;;;;1.90;1.17;;;;;;;23.56;43.68;101648.92;2283448;78;50399;-74
2022/09/01 10:40:13;;;;;;;1.67;1.00;;;;;;;23.53;43.69;101645.27;2252894;78;51136;-76
2022/09/01 10:43:34;;;;;;;1.52;0.95;;;;;;;23.54;43.50;101648.28;2267811;76;50396;-74
2022/09/01 10:46:41;;;;;;;2.20;1.10;;;;;;;23.54;43.76;101644.75;2283422;78;51457;-73
2022/09/01 10:49:49;;;;;;;1.37;0.98;;;;;;;23.51;43.71;101635.16;2252886;78;51054;-73
2022/09/01 10:52:57;;;;;;;1.60;1.00;;;;;;;23.48;43.56;101636.90;2283570;78;50725;-76
2022/09/01 10:56:19;;;;;;;1.55;0.93;;;;;;;23.49;43.63;101641.27;2253126;78;50699;-74
2022/09/01 10:59:27;;;;;;;1.77;1.10;;;;;;;23.47;43.56;101640.61;2253074;78;51595;-74
2022/09/01 11:02:29;;;;;;;2.67;1.20;;;;;;;23.46;43.64;101636.25;2253288;78;51508;-74
2022/09/01 11:05:55;;;;;;;2.62;1.10;;;;;;;23.43;43.47;101633.94;2228669;78;50224;-74
2022/09/01 11:09:00;;;;;;;1.83;0.90;;;;;;;23.42;43.53;101624.97;2283883;78;51511;-76
2022/09/01 11:12:20;;;;;;;2.25;1.00;;;;;;;23.42;43.60;101633.08;2278137;78;50391;-74
2022/09/01 11:15:41;;;;;;;2.42;1.20;;;;;;;23.41;43.51;101626.02;2336473;74;52619;-74
2022/09/01 11:18:43;;;;;;;2.02;1.00;;;;;;;23.41;43.63;101622.48;2347120;74;50417;-74
2022/09/01 11:21:45;;;;;;;2.47;1.30;;;;;;;23.42;43.52;101621.44;2378906;74;50304;-74
2022/09/01 11:24:51;;;;;;;2.25;1.22;;;;;;;23.41;43.39;101621.13;2378897;74;50765;-74
2022/09/01 11:27:55;;;;;;;2.40;1.07;;;;;;;23.41;43.40;101623.83;2378513;74;50764;-74
2022/09/01 11:31:10;;;;;;;1.50;1.22;;;;;;;23.41;43.23;101621.13;2345977;74;51093;-74
2022/09/01 11:34:22;;;;;;;3.30;1.10;;;;;;;23.40;43.17;101624.84;2373388;74;50432;-73
2022/09/01 11:37:25;;;;;;;2.12;1.00;;;;;;;23.39;43.29;101619.13;2374932;74;50194;-73
2022/09/01 11:40:29;;;;;;;1.00;0.90;;;;;;;23.38;43.10;101622.88;2224966;79;50980;-77
2022/09/01 11:43:31;;;;;;;2.80;1.25;;;;;;;23.38;43.18;101626.92;2330593;76;51559;-75
2022/09/01 11:46:34;;;;;;;1.52;1.10;;;;;;;23.39;43.30;101623.18;2330035;76;51498;-75
2022/09/01 11:49:38;;;;;;;1.92;0.90;;;;;;;23.38;43.20;101630.45;2330367;76;50625;-74
2022/09/01 11:52:41;;;;;;;1.05;0.72;;;;;;;23.38;43.21;101628.27;2330340;76;50711;-73
2022/09/01 11:55:45;;;;;;;1.10;0.80;;;;;;;23.36;43.08;101623.05;2342716;74;51009;-73
2022/09/01 11:58:47;;;;;;;2.22;1.00;;;;;;;23.36;43.08;101627.63;2378737;74;51523;-73
2022/09/01 12:01:51;;;;;;;1.12;0.80;;;;;;;23.34;43.18;101621.56;2378978;74;51464;-72
2022/09/01 12:04:55;;;;;;;2.60;1.25;;;;;;;23.35;43.17;101620.52;2345865;74;51607;-73
2022/09/01 12:07:57;;;;;;;1.47;0.90;;;;;;;23.33;43.24;101614.50;2359881;74;51467;-74
2022/09/01 12:11:13;;;;;;;1.55;1.00;;;;;;;23.31;43.14;101622.78;2377673;74;50251;-75
2022/09/01 12:14:16;;;;;;;;;;;;;;;23.31;43.13;101618.73;2379995;74;50722;-75
2022/09/01 12:17:19;;;;;;;1.52;0.95;;;;;;;23.33;43.04;101616.69;2370043;75;51446;-75
2022/09/01 12:20:25;;;;;;;1.62;0.98;;;;;;;23.32;43.14;101620.39;2336154;75;51487;-75
2022/09/01 12:23:30;;;;;;;1.87;0.93;;;;;;;23.32;43.05;101615.52;2336400;75;49911;-74
2022/09/01 12:26:32;;;;;;;1.20;0.90;;;;;;;23.32;43.00;101612.30;2370789;75;51488;-74
2022/09/01 12:29:34;;;;;;;2.00;1.10;;;;;;;23.31;43.24;101614.69;2226168;78;51758;-75
2022/09/01 12:32:37;;;;;;;1.57;1.00;;;;;;;23.31;42.94;101611.16;2366421;75;50515;-75
2022/09/01 12:35:39;;;;;;;1.65;1.00;;;;;;;23.31;42.99;101607.09;2370655;75;50432;-75
2022/09/01 12:38:41;;;;;;;1.50;1.05;;;;;;;23.30;42.93;101605.41;2333157;75;50115;-75
2022/09/01 12:41:44;;;;;;;1.27;0.70;;;;;;;23.29;42.92;101608.62;2332334;75;51542;-75
2022/09/01 12:44:50;;;;;;;1.07;0.90;;;;;;;23.29;42.80;101607.28;2342670;75;51465;-74
2022/09/01 12:47:52;;;;;;;1.07;0.85;;;;;;;23.29;42.99;101607.80;2303532;76;50253;-74
2022/09/01 12:50:54;;;;;;;3.22;1.10;;;;;;;23.28;42.77;101606.97;2323521;76;50651;-73
2022/09/01 12:53:59;;;;;;;1.42;0.80;;;;;;;23.28;42.69;101607.48;2296563;76;51142;-74
2022/09/01 12:57:01;;;;;;;0.85;0.65;;;;;;;23.29;42.67;101603.75;2323516;76;50376;-74
2022/09/01 13:00:18;;;;;;;1.70;1.10;;;;;;;23.29;42.71;101605.09;2323474;76;51589;-74
2022/09/01 13:03:21;;;;;;;1.70;0.90;;;;;;;23.28;42.57;101604.27;2271502;76;49594;-74
2022/09/01 13:06:24;;;;;;;1.45;1.10;;;;;;;23.28;42.65;101600.22;2323311;76;51487;-74
2022/09/01 13:09:26;;;;;;;2.08;1.00;;;;;;;23.28;42.79;101600.22;2323513;76;51544;-73
2022/09/01 13:12:28;;;;;;;2.00;0.95;;;;;;;23.26;42.71;101593.64;2271535;76;51421;-74
2022/09/01 13:15:31;;;;;;;1.77;1.10;;;;;;;23.28;42.76;101598.03;2334461;75;51523;-74
2022/09/01 13:18:33;;;;;;;1.35;1.07;;;;;;;23.26;42.74;101595.52;2329594;75;51052;-74
2022/09/01 13:21:35;;;;;;;1.57;1.27;;;;;;;23.25;42.75;101588.45;2330016;75;51491;-74
2022/09/01 13:24:38;;;;;;;2.40;1.00;;;;;;;23.25;42.66;101591.98;2354962;75;50400;-73
2022/09/01 13:27:43;;;;;;;1.45;1.10;;;;;;;23.24;42.77;101579.49;2329763;75;52422;-75
2022/09/01 13:30:47;;;;;;;3.40;1.50;;;;;;;23.25;42.66;101585.75;2305089;75;22419;-75
2022/09/01 13:33:49;;;;;;;1.95;1.57;;;;;;;23.24;42.71;101581.36;2355125;75;50391;-75
2022/09/01 13:36:51;;;;;;;2.75;1.12;;;;;;;23.25;42.75;101579.83;2330116;75;50254;-75
2022/09/01 13:39:54;;;;;;;1.10;1.00;;;;;;;23.24;42.68;101574.09;2355123;75;50681;-75
2022/09/01 13:42:56;;;;;;;2.55;1.10;;;;;;;23.24;42.73;101572.74;2304248;75;52512;-75
2022/09/01 13:45:58;;;;;;;1.92;1.20;;;;;;;23.25;42.62;101577.13;2349608;75;51512;-77
2022/09/01 13:49:02;;;;;;;1.60;1.10;;;;;;;23.24;42.56;101574.09;2330034;75;51456;-75
2022/09/01 13:52:04;;;;;;;2.40;1.10;;;;;;;23.24;42.55;101571.39;2294518;75;50044;-74
2022/09/01 13:55:06;;;;;;;3.17;1.30;;;;;;;23.23;42.51;101569.73;2304225;75;51477;-74
2022/09/01 13:58:09;;;;;;;1.70;1.30;;;;;;;23.24;42.53;101571.39;2329917;75;51623;-75
2022/09/01 14:01:12;;;;;;;2.47;1.22;;;;;;;23.24;42.52;101563.29;2304307;75;50420;-74
2022/09/01 14:04:14;;;;;;;2.02;1.10;;;;;;;23.25;42.59;101560.10;2355170;75;50629;-75
2022/09/01 14:07:17;;;;;;;3.55;1.37;;;;;;;23.24;42.73;101558.41;2329965;75;51460;-75
2022/09/01 14:10:20;;;;;;;2.15;1.30;;;;;;;23.25;42.55;101564.16;2278928;75;49667;-75
2022/09/01 14:13:23;;;;;;;1.25;1.02;;;;;;;23.25;42.61;101556.88;2330126;75;51632;-74
2022/09/01 14:16:25;;;;;;;3.20;1.30;;;;;;;23.25;42.58;101559.58;2335019;75;51521;-74
2022/09/01 14:19:28;;;;;;;2.87;1.42;;;;;;;23.24;42.61;101551.14;2335829;75;51423;-74
2022/09/01 14:22:30;;;;;;;2.85;1.40;;;;;;;23.26;42.64;101555.02;2335662;75;51579;-77
2022/09/01 14:25:32;;;;;;;2.80;1.80;;;;;;;23.28;42.57;101552.13;2308109;75;50999;-76
2022/09/01 14:28:34;;;;;;;1.75;1.52;;;;;;;23.25;42.70;101554.18;2370458;75;51509;-74
2022/09/01 14:31:37;;;;;;;2.58;1.90;;;;;;;23.25;42.67;101545.25;2335875;75;51517;-76
2022/09/01 14:34:39;;;;;;;2.47;2.00;;;;;;;23.25;42.64;101543.38;2309281;75;52411;-78
2022/09/01 14:37:41;;;;;;;2.60;1.75;;;;;;;23.25;42.63;101543.38;2329665;75;50313;-77
2022/09/01 14:40:45;;;;;;;2.15;1.80;;;;;;;23.25;42.59;101538.50;2303613;76;50084;-77
2022/09/01 14:43:48;;;;;;;2.10;1.65;;;;;;;23.25;42.69;101539.84;2321322;75;50659;-74
2022/09/01 14:46:52;;;;;;;2.47;1.80;;;;;;;23.23;42.74;101540.03;2365277;75;50308;-74
2022/09/01 14:49:55;;;;;;;3.95;1.90;;;;;;;23.22;42.75;101538.37;2308455;75;51183;-74
2022/09/01 14:52:57;;;;;;;2.37;1.62;;;;;;;23.22;42.97;101538.37;2335594;75;51393;-75
2022/09/01 14:56:00;;;;;;;2.85;1.70;;;;;;;23.23;42.85;101535.15;2335550;75;51602;-75
2022/09/01 14:59:02;;;;;;;9.60;1.95;;;;;;;23.25;43.08;101537.98;2335265;75;51937;-76
2022/09/01 15:02:04;;;;;;;6.42;1.80;;;;;;;23.28;42.73;101535.41;2370743;75;51487;-75
2022/09/01 15:05:07;;;;;;;10.68;2.30;;;;;;;23.30;42.79;101528.45;2335967;75;50310;-74
2022/09/01 15:08:10;;;;;;;20.02;2.95;;;;;;;23.36;42.77;101527.17;2370790;75;51401;-74
2022/09/01 15:11:16;;;;;;;17.27;2.87;;;;;;;23.38;42.84;101520.23;2370915;75;49965;-75
2022/09/01 15:14:19;;;;;;;20.43;2.95;;;;;;;23.37;43.05;101519.90;2334830;75;49621;-75
2022/09/01 15:17:21;;;;;;;20.00;2.95;;;;;;;23.38;43.11;101514.84;2319322;74;51451;-75
2022/09/01 15:23:43;;;;;;;29.18;3.85;;;;;;;23.37;43.53;101514.50;2355218;74;22261;-75
2022/09/01 15:26:46;;;;;;;28.07;3.42;;;;;;;23.37;43.69;101515.84;2382644;74;50565;-74
2022/09/01 15:29:50;;;;;;;31.73;4.47;;;;;;;23.41;42.88;101515.27;2349540;74;50261;-74
2022/09/01 15:32:53;;;;;;;23.30;3.58;;;;;;;23.36;43.06;101516.89;2323870;74;51644;-76
2022/09/01 15:35:55;;;;;;;19.67;3.87;;;;;;;23.36;43.15;101515.54;2382760;74;51466;-76
2022/09/01 15:38:58;;;;;;;21.40;3.50;;;;;;;23.33;43.24;101518.63;2326554;74;50768;-76
2022/09/01 15:42:01;;;;;;;16.77;3.50;;;;;;;23.33;43.29;101510.53;2387189;74;50744;-76
2022/09/01 15:45:06;;;;;;;21.85;3.55;;;;;;;23.32;43.15;101512.89;2377852;74;51270;-75
2022/09/01 15:48:08;;;;;;;17.07;3.10;;;;;;;23.33;43.38;101514.06;2356342;74;49762;-76
2022/09/01 15:51:32;;;;;;;11.28;2.67;;;;;;;23.35;43.28;101505.75;2356595;74;50237;-78
2022/09/01 15:54:36;;;;;;;8.50;2.60;;;;;;;23.37;43.40;101502.34;2387392;74;50283;-75
2022/09/01 15:57:38;;;;;;;14.07;3.10;;;;;;;23.34;43.32;101507.62;2357201;74;50395;-75
2022/09/01 16:00:41;;;;;;;16.10;2.98;;;;;;;23.35;43.27;101500.34;2344161;74;50882;-73
2022/09/01 16:03:43;;;;;;;11.38;2.95;;;;;;;23.34;43.34;101502.73;2349725;74;52376;-75
2022/09/01 16:06:46;;;;;;;10.93;3.02;;;;;;;23.31;43.34;101501.27;2323306;74;50378;-75
2022/09/01 16:09:48;;;;;;;7.97;2.85;;;;;;;23.29;43.36;101513.28;2383032;74;51419;-76
2022/09/01 16:12:51;;;;;;;12.23;2.90;;;;;;;23.29;43.41;101509.23;2297688;74;51300;-76
2022/09/01 16:16:17;;;;;;;14.03;2.60;;;;;;;23.29;43.44;101505.19;2348520;74;51512;-75
2022/09/01 16:19:21;;;;;;;;;;;;;;;23.30;43.54;101506.84;2353500;75;49993;-75
2022/09/01 16:22:28;;;;;;;9.30;2.65;;;;;;;23.32;43.51;101508.84;2342390;75;50070;-75
2022/09/01 16:25:32;;;;;;;19.15;9.13;;;;;;;23.31;43.62;101505.83;2315529;75;50300;-75
2022/09/01 16:28:35;;;;;;;35.88;21.37;;;;;;;23.30;44.06;101509.05;2342018;75;50798;-76
2022/09/01 16:31:39;;;;;;;51.58;30.75;;;;;;;23.29;44.36;101516.81;2307451;76;50393;-75
2022/09/01 16:34:46;;;;;;;36.70;23.00;;;;;;;23.29;44.33;101507.36;2305924;75;50256;-75
2022/09/01 16:38:11;;;;;;;33.40;16.40;;;;;;;23.28;44.43;101503.00;2352663;75;22376;-75
2022/09/01 16:41:19;;;;;;;31.42;19.07;;;;;;;23.29;44.46;101499.78;2350704;75;50104;-75
2022/09/01 16:44:33;;;;;;;21.23;8.20;;;;;;;23.29;44.38;101498.44;2350632;75;50789;-75
2022/09/01 16:48:00;;;;;;;26.55;11.83;;;;;;;23.31;44.38;101500.43;2315739;75;52068;-75
2022/09/01 16:51:21;;;;;;;27.27;16.12;;;;;;;23.31;44.38;101489.62;2349442;75;50303;-74
2022/09/01 16:54:57;;;;;;;29.60;16.62;;;;;;;23.32;44.35;101488.59;2350869;75;50731;-75
2022/09/01 16:58:23;;;;;;;33.47;19.13;;;;;;;23.34;44.28;101485.19;2352928;75;50408;-74
2022/09/01 17:01:29;;;;;;;23.02;16.05;;;;;;;23.31;44.28;101490.46;2279534;75;50658;-75
2022/09/01 17:04:55;;;;;;;33.83;16.73;;;;;;;23.31;44.25;101492.33;2302519;77;55100;-75
2022/09/01 17:08:05;;;;;;;27.65;15.80;;;;;;;23.29;44.20;101490.33;2310975;77;51517;-75
2022/09/01 17:11:17;;;;;;;19.67;14.70;;;;;;;23.27;44.22;101487.81;2311845;77;50240;-75
2022/09/01 17:14:30;;;;;;;21.57;14.80;;;;;;;23.28;44.17;101498.13;2305085;77;52648;-75
2022/09/01 17:17:58;;;;;;;27.20;14.13;;;;;;;23.28;44.12;101495.42;2315516;77;50410;-74
2022/09/01 17:21:18;;;;;;;21.68;13.95;;;;;;;23.26;44.01;101491.03;2311524;77;52334;-75
2022/09/01 17:24:37;;;;;;;28.12;14.15;;;;;;;23.25;44.07;101497.47;2303494;76;50430;-75
2022/09/01 17:27:49;;;;;;;22.90;13.00;;;;;;;23.25;44.06;101499.34;2311744;77;50697;-74
2022/09/01 17:31:13;;;;;;;25.20;12.03;;;;;;;23.25;44.11;101508.28;2326423;75;49808;-75
2022/09/01 17:34:47;;;;;;;18.37;11.53;;;;;;;23.27;44.00;101508.06;2345604;75;50827;-75
2022/09/01 17:38:04;;;;;;;15.65;11.38;;;;;;;23.24;44.03;101512.51;2311469;77;50086;-76
2022/09/01 17:41:29;;;;;;;24.60;9.73;;;;;;;23.24;44.04;101515.20;2315008;75;51583;-77
2022/09/01 17:44:34;;;;;;;18.02;7.55;;;;;;;23.25;43.76;101516.90;2352845;75;23098;-76
2022/09/01 17:47:54;;;;;;;24.75;9.05;;;;;;;23.23;43.95;101518.43;2326421;75;22304;-74
2022/09/01 17:51:12;;;;;;;37.10;9.20;;;;;;;23.26;43.57;101525.31;2310435;76;51595;-75
2022/09/01 17:54:29;;;;;;;25.48;7.78;;;;;;;23.25;43.37;101527.18;2310650;77;51511;-76
2022/09/01 17:57:52;;;;;;;31.45;7.17;;;;;;;23.25;43.22;101531.23;2276822;77;50310;-75
2022/09/01 18:01:08;;;;;;;27.00;7.45;;;;;;;23.25;43.41;101533.93;2321873;75;51468;-75
2022/09/01 18:04:22;;;;;;;22.77;8.15;;;;;;;23.22;43.46;101531.63;2343012;75;23075;-74
2022/09/01 18:07:44;;;;;;;22.55;8.03;;;;;;;23.22;43.40;101536.16;2332986;75;51547;-75
2022/09/01 18:11:07;;;;;;;28.00;7.70;;;;;;;23.21;43.37;101538.55;2327291;74;51482;-75
2022/09/01 18:14:29;;;;;;;20.97;7.70;;;;;;;23.19;43.33;101538.73;2310676;77;50736;-75
2022/09/01 18:17:43;;;;;;;24.27;7.72;;;;;;;23.19;43.33;101537.38;2310560;77;50763;-75
2022/09/01 18:20:46;;;;;;;20.57;7.12;;;;;;;23.18;43.35;101539.77;2310731;77;51466;-75
2022/09/01 18:23:51;;;;;;;18.55;5.87;;;;;;;23.18;43.32;101545.17;2277265;77;49594;-74
2022/09/01 18:26:53;;;;;;;16.77;6.08;;;;;;;23.17;43.36;101543.52;2310112;76;50676;-74
2022/09/01 18:29:55;;;;;;;17.90;5.80;;;;;;;23.16;43.35;101539.13;2323607;75;50691;-75
2022/09/01 18:33:10;;;;;;;19.60;6.10;;;;;;;23.15;43.30;101545.56;2309360;75;50971;-75
2022/09/01 18:36:33;;;;;;;15.85;5.75;;;;;;;23.16;43.29;101545.87;2348728;75;50373;-75
2022/09/01 18:39:41;;;;;;;16.42;5.90;;;;;;;23.15;43.25;101548.26;2353165;75;51478;-74
2022/09/01 18:42:52;;;;;;;14.50;5.67;;;;;;;23.16;43.09;101555.32;2358643;75;51582;-74